sensor_id;sensor_type;location;lat;lon;timestamp;temperature;humidity
40059;SHT31;25763;49.972;8.568;2023-03-01T00:00:11;0.54;68.82
40059;SHT31;25763;49.972;8.568;2023-03-01T00:02:37;0.57;68.70
40059;SHT31;25763;49.972;8.568;2023-03-01T00:05:03;0.52;68.84
40059;SHT31;25763;49.972;8.568;2023-03-01T00:07:29;0.48;68.97
40059;SHT31;25763;49.972;8.568;2023-03-01T00:09:54;0.48;68.91
40059;SHT31;25763;49.972;8.568;2023-03-01T00:12:20;0.47;68.97
40059;SHT31;25763;49.972;8.568;2023-03-01T00:14:45;0.37;69.27
40059;SHT31;25763;49.972;8.568;2023-03-01T00:17:10;0.33;69.48
40059;SHT31;25763;49.972;8.568;2023-03-01T00:19:36;0.33;69.47
40059;SHT31;25763;49.972;8.568;2023-03-01T00:22:01;0.30;69.58
40059;SHT31;25763;49.972;8.568;2023-03-01T00:24:26;0.29;69.55
40059;SHT31;25763;49.972;8.568;2023-03-01T00:26:53;0.27;69.69
40059;SHT31;25763;49.972;8.568;2023-03-01T00:29:21;0.29;69.79
40059;SHT31;25763;49.972;8.568;2023-03-01T00:31:46;0.27;69.64
40059;SHT31;25763;49.972;8.568;2023-03-01T00:34:11;0.27;69.76
40059;SHT31;25763;49.972;8.568;2023-03-01T00:36:37;0.22;69.87
40059;SHT31;25763;49.972;8.568;2023-03-01T00:39:05;0.22;69.89
40059;SHT31;25763;49.972;8.568;2023-03-01T00:41:30;0.20;69.93
40059;SHT31;25763;49.972;8.568;2023-03-01T00:43:56;0.19;69.97
40059;SHT31;25763;49.972;8.568;2023-03-01T00:46:24;0.13;70.02
40059;SHT31;25763;49.972;8.568;2023-03-01T00:48:50;0.17;69.98
40059;SHT31;25763;49.972;8.568;2023-03-01T00:51:18;0.20;69.82
40059;SHT31;25763;49.972;8.568;2023-03-01T00:53:44;0.27;69.56
40059;SHT31;25763;49.972;8.568;2023-03-01T00:56:11;0.20;69.85
40059;SHT31;25763;49.972;8.568;2023-03-01T00:58:37;0.16;70.00
40059;SHT31;25763;49.972;8.568;2023-03-01T01:01:11;0.20;69.70
40059;SHT31;25763;49.972;8.568;2023-03-01T01:04:03;0.17;69.93
40059;SHT31;25763;49.972;8.568;2023-03-01T01:06:34;0.12;70.10
40059;SHT31;25763;49.972;8.568;2023-03-01T01:09:01;0.10;70.15
40059;SHT31;25763;49.972;8.568;2023-03-01T01:11:28;0.12;70.20
40059;SHT31;25763;49.972;8.568;2023-03-01T01:13:54;0.16;70.00
40059;SHT31;25763;49.972;8.568;2023-03-01T01:16:21;0.26;69.91
40059;SHT31;25763;49.972;8.568;2023-03-01T01:18:47;0.17;70.10
40059;SHT31;25763;49.972;8.568;2023-03-01T01:21:15;0.26;69.75
40059;SHT31;25763;49.972;8.568;2023-03-01T01:23:42;0.07;70.34
40059;SHT31;25763;49.972;8.568;2023-03-01T01:26:09;0.10;70.42
40059;SHT31;25763;49.972;8.568;2023-03-01T01:28:36;0.02;70.53
40059;SHT31;25763;49.972;8.568;2023-03-01T01:31:02;0.05;70.64
40059;SHT31;25763;49.972;8.568;2023-03-01T01:33:27;0.06;70.60
40059;SHT31;25763;49.972;8.568;2023-03-01T01:35:53;0.05;70.74
40059;SHT31;25763;49.972;8.568;2023-03-01T01:38:18;-0.01;70.95
40059;SHT31;25763;49.972;8.568;2023-03-01T01:40:45;0.00;71.09
40059;SHT31;25763;49.972;8.568;2023-03-01T01:45:46;0.03;71.12
40059;SHT31;25763;49.972;8.568;2023-03-01T01:48:16;-0.01;71.31
40059;SHT31;25763;49.972;8.568;2023-03-01T01:50:42;-0.02;71.35
40059;SHT31;25763;49.972;8.568;2023-03-01T01:53:12;-0.02;71.38
40059;SHT31;25763;49.972;8.568;2023-03-01T01:55:46;0.00;71.29
40059;SHT31;25763;49.972;8.568;2023-03-01T01:58:15;-0.02;71.40
40059;SHT31;25763;49.972;8.568;2023-03-01T02:00:41;-0.07;71.36
40059;SHT31;25763;49.972;8.568;2023-03-01T02:03:10;-0.04;71.44
40059;SHT31;25763;49.972;8.568;2023-03-01T02:05:44;-0.05;71.56
40059;SHT31;25763;49.972;8.568;2023-03-01T02:08:14;-0.10;71.80
40059;SHT31;25763;49.972;8.568;2023-03-01T02:10:41;-0.11;71.86
40059;SHT31;25763;49.972;8.568;2023-03-01T02:13:07;-0.05;71.86
40059;SHT31;25763;49.972;8.568;2023-03-01T02:15:34;-0.08;71.80
40059;SHT31;25763;49.972;8.568;2023-03-01T02:18:01;-0.02;71.80
40059;SHT31;25763;49.972;8.568;2023-03-01T02:23:38;0.00;71.69
40059;SHT31;25763;49.972;8.568;2023-03-01T02:28:44;0.09;71.34
40059;SHT31;25763;49.972;8.568;2023-03-01T02:31:14;0.19;70.89
40059;SHT31;25763;49.972;8.568;2023-03-01T02:34:00;0.06;71.28
40059;SHT31;25763;49.972;8.568;2023-03-01T02:36:30;0.07;71.41
40059;SHT31;25763;49.972;8.568;2023-03-01T02:38:59;0.10;71.27
40059;SHT31;25763;49.972;8.568;2023-03-01T02:41:28;0.02;71.59
40059;SHT31;25763;49.972;8.568;2023-03-01T02:43:55;0.09;71.41
40059;SHT31;25763;49.972;8.568;2023-03-01T02:46:23;0.06;71.50
40059;SHT31;25763;49.972;8.568;2023-03-01T02:48:54;0.06;71.40
40059;SHT31;25763;49.972;8.568;2023-03-01T02:56:21;0.07;71.26
40059;SHT31;25763;49.972;8.568;2023-03-01T02:58:46;0.10;71.29
40059;SHT31;25763;49.972;8.568;2023-03-01T03:01:16;0.07;71.51
40059;SHT31;25763;49.972;8.568;2023-03-01T03:03:42;0.10;71.50
40059;SHT31;25763;49.972;8.568;2023-03-01T03:06:08;0.12;71.45
40059;SHT31;25763;49.972;8.568;2023-03-01T03:08:34;0.03;71.60
40059;SHT31;25763;49.972;8.568;2023-03-01T03:10:59;0.03;71.72
40059;SHT31;25763;49.972;8.568;2023-03-01T03:13:25;-0.01;71.86
40059;SHT31;25763;49.972;8.568;2023-03-01T03:15:57;0.05;71.81
40059;SHT31;25763;49.972;8.568;2023-03-01T03:18:23;0.02;72.00
40059;SHT31;25763;49.972;8.568;2023-03-01T03:20:52;0.09;71.67
40059;SHT31;25763;49.972;8.568;2023-03-01T03:23:20;0.12;71.66
40059;SHT31;25763;49.972;8.568;2023-03-01T03:25:49;0.10;71.56
40059;SHT31;25763;49.972;8.568;2023-03-01T03:28:14;0.14;71.47
40059;SHT31;25763;49.972;8.568;2023-03-01T03:30:41;0.14;71.34
40059;SHT31;25763;49.972;8.568;2023-03-01T03:33:08;0.17;71.27
40059;SHT31;25763;49.972;8.568;2023-03-01T03:35:43;0.29;70.97
40059;SHT31;25763;49.972;8.568;2023-03-01T03:38:11;0.34;70.84
40059;SHT31;25763;49.972;8.568;2023-03-01T03:41:04;0.27;70.76
40059;SHT31;25763;49.972;8.568;2023-03-01T03:43:32;0.16;70.98
40059;SHT31;25763;49.972;8.568;2023-03-01T03:45:57;0.33;70.53
40059;SHT31;25763;49.972;8.568;2023-03-01T03:48:24;0.40;70.53
40059;SHT31;25763;49.972;8.568;2023-03-01T03:50:54;0.40;70.34
40059;SHT31;25763;49.972;8.568;2023-03-01T03:53:22;0.45;70.35
40059;SHT31;25763;49.972;8.568;2023-03-01T03:55:47;0.51;70.14
40059;SHT31;25763;49.972;8.568;2023-03-01T03:58:15;0.51;70.15
40059;SHT31;25763;49.972;8.568;2023-03-01T04:00:43;0.48;69.95
40059;SHT31;25763;49.972;8.568;2023-03-01T04:03:09;0.49;69.76
40059;SHT31;25763;49.972;8.568;2023-03-01T04:05:36;0.51;69.88
40059;SHT31;25763;49.972;8.568;2023-03-01T04:08:02;0.37;70.24
40059;SHT31;25763;49.972;8.568;2023-03-01T04:10:29;0.36;70.26
40059;SHT31;25763;49.972;8.568;2023-03-01T04:12:54;0.23;70.82
40059;SHT31;25763;49.972;8.568;2023-03-01T04:15:21;0.22;70.99
40059;SHT31;25763;49.972;8.568;2023-03-01T04:17:50;0.17;71.07
40059;SHT31;25763;49.972;8.568;2023-03-01T04:20:18;0.12;71.35
40059;SHT31;25763;49.972;8.568;2023-03-01T04:22:51;0.12;71.20
40059;SHT31;25763;49.972;8.568;2023-03-01T04:25:17;0.12;71.22
40059;SHT31;25763;49.972;8.568;2023-03-01T04:27:43;0.17;70.93
40059;SHT31;25763;49.972;8.568;2023-03-01T04:30:09;0.17;70.91
40059;SHT31;25763;49.972;8.568;2023-03-01T04:32:35;0.19;70.78
40059;SHT31;25763;49.972;8.568;2023-03-01T04:35:00;0.20;70.76
40059;SHT31;25763;49.972;8.568;2023-03-01T04:37:26;0.16;70.82
40059;SHT31;25763;49.972;8.568;2023-03-01T04:39:51;0.12;70.81
40059;SHT31;25763;49.972;8.568;2023-03-01T04:42:17;0.13;70.91
40059;SHT31;25763;49.972;8.568;2023-03-01T04:44:43;0.12;70.89
40059;SHT31;25763;49.972;8.568;2023-03-01T04:47:09;0.13;70.89
40059;SHT31;25763;49.972;8.568;2023-03-01T04:49:34;0.12;70.95
40059;SHT31;25763;49.972;8.568;2023-03-01T04:52:00;0.10;71.11
40059;SHT31;25763;49.972;8.568;2023-03-01T04:54:33;0.03;71.07
40059;SHT31;25763;49.972;8.568;2023-03-01T04:56:59;0.02;71.27
40059;SHT31;25763;49.972;8.568;2023-03-01T04:59:25;-0.01;71.36
40059;SHT31;25763;49.972;8.568;2023-03-01T05:01:52;-0.02;71.53
40059;SHT31;25763;49.972;8.568;2023-03-01T05:04:21;-0.04;71.48
40059;SHT31;25763;49.972;8.568;2023-03-01T05:06:46;0.00;71.48
40059;SHT31;25763;49.972;8.568;2023-03-01T05:09:12;0.00;71.36
40059;SHT31;25763;49.972;8.568;2023-03-01T05:11:37;-0.02;71.50
40059;SHT31;25763;49.972;8.568;2023-03-01T05:14:07;-0.04;71.73
40059;SHT31;25763;49.972;8.568;2023-03-01T05:16:33;-0.08;71.81
40059;SHT31;25763;49.972;8.568;2023-03-01T05:18:59;-0.11;71.88
40059;SHT31;25763;49.972;8.568;2023-03-01T05:21:24;-0.08;71.75
40059;SHT31;25763;49.972;8.568;2023-03-01T05:23:50;-0.08;71.71
40059;SHT31;25763;49.972;8.568;2023-03-01T05:26:18;-0.02;71.70
40059;SHT31;25763;49.972;8.568;2023-03-01T05:28:44;-0.08;71.85
40059;SHT31;25763;49.972;8.568;2023-03-01T05:31:10;-0.01;71.79
40059;SHT31;25763;49.972;8.568;2023-03-01T05:33:40;-0.05;71.85
40059;SHT31;25763;49.972;8.568;2023-03-01T05:36:06;-0.04;71.82
40059;SHT31;25763;49.972;8.568;2023-03-01T05:38:33;-0.08;71.83
40059;SHT31;25763;49.972;8.568;2023-03-01T05:40:58;-0.07;71.95
40059;SHT31;25763;49.972;8.568;2023-03-01T05:43:24;-0.07;71.87
40059;SHT31;25763;49.972;8.568;2023-03-01T05:45:49;-0.14;72.10
40059;SHT31;25763;49.972;8.568;2023-03-01T05:48:15;-0.14;71.99
40059;SHT31;25763;49.972;8.568;2023-03-01T05:50:44;-0.17;72.14
40059;SHT31;25763;49.972;8.568;2023-03-01T05:53:10;-0.12;72.20
40059;SHT31;25763;49.972;8.568;2023-03-01T05:55:36;-0.15;72.11
40059;SHT31;25763;49.972;8.568;2023-03-01T05:58:05;-0.17;72.35
40059;SHT31;25763;49.972;8.568;2023-03-01T06:00:30;-0.21;72.30
40059;SHT31;25763;49.972;8.568;2023-03-01T06:02:57;-0.18;72.22
40059;SHT31;25763;49.972;8.568;2023-03-01T06:05:23;-0.21;72.46
40059;SHT31;25763;49.972;8.568;2023-03-01T06:07:49;-0.22;72.59
40059;SHT31;25763;49.972;8.568;2023-03-01T06:10:16;-0.19;72.40
40059;SHT31;25763;49.972;8.568;2023-03-01T06:12:43;-0.21;72.52
40059;SHT31;25763;49.972;8.568;2023-03-01T06:15:10;-0.22;72.57
40059;SHT31;25763;49.972;8.568;2023-03-01T06:17:38;-0.22;72.53
40059;SHT31;25763;49.972;8.568;2023-03-01T06:20:10;-0.21;72.37
40059;SHT31;25763;49.972;8.568;2023-03-01T06:22:36;-0.26;72.58
40059;SHT31;25763;49.972;8.568;2023-03-01T06:25:02;-0.14;72.39
40059;SHT31;25763;49.972;8.568;2023-03-01T06:27:28;-0.19;72.50
40059;SHT31;25763;49.972;8.568;2023-03-01T06:29:53;-0.19;72.57
40059;SHT31;25763;49.972;8.568;2023-03-01T06:32:19;-0.22;72.60
40059;SHT31;25763;49.972;8.568;2023-03-01T06:34:44;-0.25;72.66
40059;SHT31;25763;49.972;8.568;2023-03-01T06:37:10;-0.28;72.95
40059;SHT31;25763;49.972;8.568;2023-03-01T06:39:36;-0.23;72.69
40059;SHT31;25763;49.972;8.568;2023-03-01T06:42:01;-0.26;72.61
40059;SHT31;25763;49.972;8.568;2023-03-01T06:44:27;-0.33;72.71
40059;SHT31;25763;49.972;8.568;2023-03-01T06:46:52;-0.25;72.68
40059;SHT31;25763;49.972;8.568;2023-03-01T06:49:18;-0.22;72.38
40059;SHT31;25763;49.972;8.568;2023-03-01T06:51:45;-0.18;72.21
40059;SHT31;25763;49.972;8.568;2023-03-01T06:54:11;-0.25;72.28
40059;SHT31;25763;49.972;8.568;2023-03-01T06:56:36;-0.17;72.02
40059;SHT31;25763;49.972;8.568;2023-03-01T06:59:02;-0.10;71.96
40059;SHT31;25763;49.972;8.568;2023-03-01T07:01:28;0.00;71.82
40059;SHT31;25763;49.972;8.568;2023-03-01T07:03:53;0.02;71.55
40059;SHT31;25763;49.972;8.568;2023-03-01T07:06:19;0.03;71.66
40059;SHT31;25763;49.972;8.568;2023-03-01T07:08:44;0.13;71.59
40059;SHT31;25763;49.972;8.568;2023-03-01T07:11:10;0.09;71.25
40059;SHT31;25763;49.972;8.568;2023-03-01T07:13:35;0.10;71.44
40059;SHT31;25763;49.972;8.568;2023-03-01T07:16:00;0.20;71.28
40059;SHT31;25763;49.972;8.568;2023-03-01T07:18:26;0.36;70.94
40059;SHT31;25763;49.972;8.568;2023-03-01T07:20:51;0.45;70.58
40059;SHT31;25763;49.972;8.568;2023-03-01T07:23:17;0.57;70.13
40059;SHT31;25763;49.972;8.568;2023-03-01T07:25:42;0.68;69.84
40059;SHT31;25763;49.972;8.568;2023-03-01T07:28:07;0.79;69.95
40059;SHT31;25763;49.972;8.568;2023-03-01T07:30:33;0.77;69.50
40059;SHT31;25763;49.972;8.568;2023-03-01T07:32:58;0.73;69.39
40059;SHT31;25763;49.972;8.568;2023-03-01T07:35:27;0.66;69.54
40059;SHT31;25763;49.972;8.568;2023-03-01T07:37:53;0.70;69.55
40059;SHT31;25763;49.972;8.568;2023-03-01T07:40:19;0.80;69.50
40059;SHT31;25763;49.972;8.568;2023-03-01T07:42:44;0.86;69.17
40059;SHT31;25763;49.972;8.568;2023-03-01T07:45:10;0.82;68.96
40059;SHT31;25763;49.972;8.568;2023-03-01T07:47:36;0.82;69.03
40059;SHT31;25763;49.972;8.568;2023-03-01T07:50:03;0.89;68.87
40059;SHT31;25763;49.972;8.568;2023-03-01T07:52:29;1.07;68.63
40059;SHT31;25763;49.972;8.568;2023-03-01T07:54:56;0.99;68.15
40059;SHT31;25763;49.972;8.568;2023-03-01T07:57:21;1.11;68.33
40059;SHT31;25763;49.972;8.568;2023-03-01T07:59:46;1.18;68.13
40059;SHT31;25763;49.972;8.568;2023-03-01T08:02:12;1.08;67.92
40059;SHT31;25763;49.972;8.568;2023-03-01T08:04:37;1.17;68.12
40059;SHT31;25763;49.972;8.568;2023-03-01T08:07:04;1.18;67.64
40059;SHT31;25763;49.972;8.568;2023-03-01T08:09:30;1.36;67.37
40059;SHT31;25763;49.972;8.568;2023-03-01T08:11:56;1.45;66.89
40059;SHT31;25763;49.972;8.568;2023-03-01T08:14:24;1.78;66.68
40059;SHT31;25763;49.972;8.568;2023-03-01T08:16:50;1.91;65.76
40059;SHT31;25763;49.972;8.568;2023-03-01T08:19:15;2.01;64.74
40059;SHT31;25763;49.972;8.568;2023-03-01T08:21:40;2.29;64.31
40059;SHT31;25763;49.972;8.568;2023-03-01T08:24:06;2.25;63.95
40059;SHT31;25763;49.972;8.568;2023-03-01T08:26:33;2.23;63.74
40059;SHT31;25763;49.972;8.568;2023-03-01T08:28:59;2.42;63.44
40059;SHT31;25763;49.972;8.568;2023-03-01T08:31:34;2.60;63.08
40059;SHT31;25763;49.972;8.568;2023-03-01T08:34:01;2.63;62.60
40059;SHT31;25763;49.972;8.568;2023-03-01T08:36:35;2.57;62.52
40059;SHT31;25763;49.972;8.568;2023-03-01T08:39:01;2.77;62.29
40059;SHT31;25763;49.972;8.568;2023-03-01T08:41:27;2.77;61.91
40059;SHT31;25763;49.972;8.568;2023-03-01T08:43:52;2.57;62.33
40059;SHT31;25763;49.972;8.568;2023-03-01T08:46:24;2.81;61.61
40059;SHT31;25763;49.972;8.568;2023-03-01T08:48:49;2.91;61.41
40059;SHT31;25763;49.972;8.568;2023-03-01T08:51:17;3.20;61.21
40059;SHT31;25763;49.972;8.568;2023-03-01T08:53:43;3.02;60.83
40059;SHT31;25763;49.972;8.568;2023-03-01T08:56:09;2.98;61.14
40059;SHT31;25763;49.972;8.568;2023-03-01T08:58:35;3.06;61.21
40059;SHT31;25763;49.972;8.568;2023-03-01T09:01:07;3.23;60.59
40059;SHT31;25763;49.972;8.568;2023-03-01T09:03:32;3.28;60.30
40059;SHT31;25763;49.972;8.568;2023-03-01T09:06:01;3.39;60.16
40059;SHT31;25763;49.972;8.568;2023-03-01T09:08:27;3.43;59.49
40059;SHT31;25763;49.972;8.568;2023-03-01T09:10:53;3.28;60.06
40059;SHT31;25763;49.972;8.568;2023-03-01T09:13:18;3.54;59.86
40059;SHT31;25763;49.972;8.568;2023-03-01T09:15:43;3.62;59.43
40059;SHT31;25763;49.972;8.568;2023-03-01T09:18:09;3.61;59.37
40059;SHT31;25763;49.972;8.568;2023-03-01T09:20:34;3.82;58.58
40059;SHT31;25763;49.972;8.568;2023-03-01T09:22:59;3.72;58.80
40059;SHT31;25763;49.972;8.568;2023-03-01T09:25:25;4.11;58.79
40059;SHT31;25763;49.972;8.568;2023-03-01T09:27:51;4.27;57.47
40059;SHT31;25763;49.972;8.568;2023-03-01T09:30:17;4.01;57.94
40059;SHT31;25763;49.972;8.568;2023-03-01T09:32:43;4.28;57.67
40059;SHT31;25763;49.972;8.568;2023-03-01T09:35:10;4.28;57.57
40059;SHT31;25763;49.972;8.568;2023-03-01T09:37:36;4.25;57.30
40059;SHT31;25763;49.972;8.568;2023-03-01T09:40:04;4.69;57.24
40059;SHT31;25763;49.972;8.568;2023-03-01T09:42:32;4.76;56.51
40059;SHT31;25763;49.972;8.568;2023-03-01T09:45:05;4.90;56.96
40059;SHT31;25763;49.972;8.568;2023-03-01T09:47:33;4.98;56.34
40059;SHT31;25763;49.972;8.568;2023-03-01T09:50:13;4.76;55.83
40059;SHT31;25763;49.972;8.568;2023-03-01T09:52:43;4.88;55.76
40059;SHT31;25763;49.972;8.568;2023-03-01T09:55:14;4.76;55.20
40059;SHT31;25763;49.972;8.568;2023-03-01T09:58:00;4.79;56.03
40059;SHT31;25763;49.972;8.568;2023-03-01T10:00:43;5.13;55.03
40059;SHT31;25763;49.972;8.568;2023-03-01T10:05:56;5.01;55.07
40059;SHT31;25763;49.972;8.568;2023-03-01T10:08:31;5.01;55.06
40059;SHT31;25763;49.972;8.568;2023-03-01T10:11:02;5.29;54.95
40059;SHT31;25763;49.972;8.568;2023-03-01T10:16:48;5.59;53.72
40059;SHT31;25763;49.972;8.568;2023-03-01T10:19:38;5.63;53.11
40059;SHT31;25763;49.972;8.568;2023-03-01T10:22:20;5.21;54.40
40059;SHT31;25763;49.972;8.568;2023-03-01T10:24:50;5.36;54.48
40059;SHT31;25763;49.972;8.568;2023-03-01T10:30:21;5.92;53.22
40059;SHT31;25763;49.972;8.568;2023-03-01T10:32:49;5.70;53.69
40059;SHT31;25763;49.972;8.568;2023-03-01T10:35:21;6.02;53.42
40059;SHT31;25763;49.972;8.568;2023-03-01T10:38:09;6.33;53.22
40059;SHT31;25763;49.972;8.568;2023-03-01T10:40:36;6.37;53.96
40059;SHT31;25763;49.972;8.568;2023-03-01T10:43:04;6.97;53.09
40059;SHT31;25763;49.972;8.568;2023-03-01T10:48:19;6.13;52.47
40059;SHT31;25763;49.972;8.568;2023-03-01T10:51:03;6.32;53.10
40059;SHT31;25763;49.972;8.568;2023-03-01T10:53:34;6.44;53.10
40059;SHT31;25763;49.972;8.568;2023-03-01T10:56:03;6.58;51.94
40059;SHT31;25763;49.972;8.568;2023-03-01T10:58:29;6.23;52.80
40059;SHT31;25763;49.972;8.568;2023-03-01T11:01:06;6.69;52.99
40059;SHT31;25763;49.972;8.568;2023-03-01T11:06:29;6.75;50.85
40059;SHT31;25763;49.972;8.568;2023-03-01T11:08:54;6.47;51.38
40059;SHT31;25763;49.972;8.568;2023-03-01T11:11:31;6.57;51.41
40059;SHT31;25763;49.972;8.568;2023-03-01T11:16:40;6.81;51.71
40059;SHT31;25763;49.972;8.568;2023-03-01T11:21:36;6.93;51.11
40059;SHT31;25763;49.972;8.568;2023-03-01T11:24:06;6.81;51.42
40059;SHT31;25763;49.972;8.568;2023-03-01T11:26:36;7.04;50.74
40059;SHT31;25763;49.972;8.568;2023-03-01T11:29:07;6.99;50.62
40059;SHT31;25763;49.972;8.568;2023-03-01T11:31:39;7.09;50.90
40059;SHT31;25763;49.972;8.568;2023-03-01T11:34:14;7.32;49.76
40059;SHT31;25763;49.972;8.568;2023-03-01T11:36:56;7.38;50.36
40059;SHT31;25763;49.972;8.568;2023-03-01T11:44:31;8.18;48.73
40059;SHT31;25763;49.972;8.568;2023-03-01T11:47:18;7.76;48.02
40059;SHT31;25763;49.972;8.568;2023-03-01T11:50:05;7.44;48.85
40059;SHT31;25763;49.972;8.568;2023-03-01T11:52:48;7.76;48.16
40059;SHT31;25763;49.972;8.568;2023-03-01T11:55:27;7.65;49.07
40059;SHT31;25763;49.972;8.568;2023-03-01T12:06:39;8.87;47.44
40059;SHT31;25763;49.972;8.568;2023-03-01T12:15:39;7.75;46.34
40059;SHT31;25763;49.972;8.568;2023-03-01T12:23:30;8.59;44.37
40059;SHT31;25763;49.972;8.568;2023-03-01T12:31:22;8.46;43.65
40059;SHT31;25763;49.972;8.568;2023-03-01T12:36:41;8.67;44.39
40059;SHT31;25763;49.972;8.568;2023-03-01T12:42:10;8.85;42.70
40059;SHT31;25763;49.972;8.568;2023-03-01T12:47:55;8.89;42.17
40059;SHT31;25763;49.972;8.568;2023-03-01T12:50:37;8.71;42.99
40059;SHT31;25763;49.972;8.568;2023-03-01T12:53:04;8.92;43.16
40059;SHT31;25763;49.972;8.568;2023-03-01T12:55:41;8.88;42.45
40059;SHT31;25763;49.972;8.568;2023-03-01T13:08:45;8.61;43.07
40059;SHT31;25763;49.972;8.568;2023-03-01T13:11:20;8.57;42.57
40059;SHT31;25763;49.972;8.568;2023-03-01T13:13:46;8.60;43.08
40059;SHT31;25763;49.972;8.568;2023-03-01T13:19:12;8.91;41.92
40059;SHT31;25763;49.972;8.568;2023-03-01T13:21:38;9.08;41.41
40059;SHT31;25763;49.972;8.568;2023-03-01T13:24:04;9.09;41.66
40059;SHT31;25763;49.972;8.568;2023-03-01T13:26:29;9.01;41.40
40059;SHT31;25763;49.972;8.568;2023-03-01T13:28:58;9.16;42.11
40059;SHT31;25763;49.972;8.568;2023-03-01T13:33:54;9.18;41.96
40059;SHT31;25763;49.972;8.568;2023-03-01T13:46:48;8.88;42.05
40059;SHT31;25763;49.972;8.568;2023-03-01T13:49:18;8.81;41.30
40059;SHT31;25763;49.972;8.568;2023-03-01T13:51:47;8.83;41.49
40059;SHT31;25763;49.972;8.568;2023-03-01T13:54:14;8.88;41.44
40059;SHT31;25763;49.972;8.568;2023-03-01T13:56:40;8.85;40.99
40059;SHT31;25763;49.972;8.568;2023-03-01T13:59:19;8.83;41.99
40059;SHT31;25763;49.972;8.568;2023-03-01T14:01:53;9.08;41.27
40059;SHT31;25763;49.972;8.568;2023-03-01T14:04:24;9.22;42.17
40059;SHT31;25763;49.972;8.568;2023-03-01T14:06:50;9.36;43.03
40059;SHT31;25763;49.972;8.568;2023-03-01T14:09:22;9.69;41.52
40059;SHT31;25763;49.972;8.568;2023-03-01T14:14:43;9.51;42.56
40059;SHT31;25763;49.972;8.568;2023-03-01T14:17:52;9.18;42.86
40059;SHT31;25763;49.972;8.568;2023-03-01T14:20:02;9.04;44.05
40059;SHT31;25763;49.972;8.568;2023-03-01T14:22:32;9.22;43.44
40059;SHT31;25763;49.972;8.568;2023-03-01T14:25:01;9.14;43.64
40059;SHT31;25763;49.972;8.568;2023-03-01T14:27:36;9.23;43.24
40059;SHT31;25763;49.972;8.568;2023-03-01T14:30:12;8.99;43.20
40059;SHT31;25763;49.972;8.568;2023-03-01T14:32:40;8.91;43.32
40059;SHT31;25763;49.972;8.568;2023-03-01T14:35:23;9.01;42.98
40059;SHT31;25763;49.972;8.568;2023-03-01T14:37:49;8.98;43.58
40059;SHT31;25763;49.972;8.568;2023-03-01T14:40:24;9.01;43.31
40059;SHT31;25763;49.972;8.568;2023-03-01T14:42:50;8.85;43.77
40059;SHT31;25763;49.972;8.568;2023-03-01T14:45:16;8.75;43.19
40059;SHT31;25763;49.972;8.568;2023-03-01T14:47:44;9.04;43.64
40059;SHT31;25763;49.972;8.568;2023-03-01T14:50:23;9.20;43.53
40059;SHT31;25763;49.972;8.568;2023-03-01T14:52:51;9.18;43.69
40059;SHT31;25763;49.972;8.568;2023-03-01T14:55:20;9.16;43.18
40059;SHT31;25763;49.972;8.568;2023-03-01T14:57:50;9.32;43.51
40059;SHT31;25763;49.972;8.568;2023-03-01T15:00:22;9.30;43.38
40059;SHT31;25763;49.972;8.568;2023-03-01T15:02:48;9.14;43.48
40059;SHT31;25763;49.972;8.568;2023-03-01T15:05:25;9.30;44.28
40059;SHT31;25763;49.972;8.568;2023-03-01T15:07:51;9.36;43.55
40059;SHT31;25763;49.972;8.568;2023-03-01T15:10:23;9.04;43.80
40059;SHT31;25763;49.972;8.568;2023-03-01T15:12:49;9.05;43.66
40059;SHT31;25763;49.972;8.568;2023-03-01T15:15:35;9.09;44.35
40059;SHT31;25763;49.972;8.568;2023-03-01T15:18:13;9.09;44.18
40059;SHT31;25763;49.972;8.568;2023-03-01T15:20:39;9.22;45.03
40059;SHT31;25763;49.972;8.568;2023-03-01T15:23:05;9.18;43.78
40059;SHT31;25763;49.972;8.568;2023-03-01T15:25:31;9.05;43.51
40059;SHT31;25763;49.972;8.568;2023-03-01T15:27:58;8.81;44.21
40059;SHT31;25763;49.972;8.568;2023-03-01T15:30:35;8.80;44.15
40059;SHT31;25763;49.972;8.568;2023-03-01T15:35:52;8.77;44.49
40059;SHT31;25763;49.972;8.568;2023-03-01T15:38:28;8.57;44.56
40059;SHT31;25763;49.972;8.568;2023-03-01T15:40:56;8.57;45.16
40059;SHT31;25763;49.972;8.568;2023-03-01T15:43:44;8.60;45.20
40059;SHT31;25763;49.972;8.568;2023-03-01T15:46:20;8.49;44.84
40059;SHT31;25763;49.972;8.568;2023-03-01T15:48:50;8.32;45.00
40059;SHT31;25763;49.972;8.568;2023-03-01T15:51:22;8.32;45.00
40059;SHT31;25763;49.972;8.568;2023-03-01T15:53:51;8.22;45.24
40059;SHT31;25763;49.972;8.568;2023-03-01T15:56:17;8.21;45.24
40059;SHT31;25763;49.972;8.568;2023-03-01T15:58:42;8.18;45.33
40059;SHT31;25763;49.972;8.568;2023-03-01T16:01:13;8.20;45.73
40059;SHT31;25763;49.972;8.568;2023-03-01T16:03:39;8.18;45.68
40059;SHT31;25763;49.972;8.568;2023-03-01T16:06:05;8.08;45.46
40059;SHT31;25763;49.972;8.568;2023-03-01T16:08:30;8.04;45.46
40059;SHT31;25763;49.972;8.568;2023-03-01T16:10:55;8.04;46.14
40059;SHT31;25763;49.972;8.568;2023-03-01T16:13:21;7.98;45.80
40059;SHT31;25763;49.972;8.568;2023-03-01T16:15:46;7.91;45.58
40059;SHT31;25763;49.972;8.568;2023-03-01T16:18:12;7.90;45.97
40059;SHT31;25763;49.972;8.568;2023-03-01T16:20:37;7.89;46.93
40059;SHT31;25763;49.972;8.568;2023-03-01T16:23:05;7.80;45.89
40059;SHT31;25763;49.972;8.568;2023-03-01T16:25:32;7.76;46.12
40059;SHT31;25763;49.972;8.568;2023-03-01T16:27:57;7.73;45.75
40059;SHT31;25763;49.972;8.568;2023-03-01T16:30:26;7.73;46.10
40059;SHT31;25763;49.972;8.568;2023-03-01T16:32:51;7.66;46.18
40059;SHT31;25763;49.972;8.568;2023-03-01T16:35:20;7.60;46.33
40059;SHT31;25763;49.972;8.568;2023-03-01T16:37:46;7.56;46.37
40059;SHT31;25763;49.972;8.568;2023-03-01T16:40:18;7.48;46.80
40059;SHT31;25763;49.972;8.568;2023-03-01T16:42:44;7.45;47.10
40059;SHT31;25763;49.972;8.568;2023-03-01T16:45:09;7.36;47.18
40059;SHT31;25763;49.972;8.568;2023-03-01T16:47:35;7.32;47.38
40059;SHT31;25763;49.972;8.568;2023-03-01T16:50:00;7.24;47.50
40059;SHT31;25763;49.972;8.568;2023-03-01T16:52:26;7.17;47.61
40059;SHT31;25763;49.972;8.568;2023-03-01T16:54:51;7.13;47.84
40059;SHT31;25763;49.972;8.568;2023-03-01T16:57:17;7.07;48.20
40059;SHT31;25763;49.972;8.568;2023-03-01T16:59:42;7.04;48.52
40059;SHT31;25763;49.972;8.568;2023-03-01T17:02:12;6.92;48.89
40059;SHT31;25763;49.972;8.568;2023-03-01T17:04:41;6.89;49.01
40059;SHT31;25763;49.972;8.568;2023-03-01T17:07:06;6.86;49.16
40059;SHT31;25763;49.972;8.568;2023-03-01T17:09:36;6.78;49.53
40059;SHT31;25763;49.972;8.568;2023-03-01T17:12:03;6.75;49.41
40059;SHT31;25763;49.972;8.568;2023-03-01T17:14:28;6.71;49.67
40059;SHT31;25763;49.972;8.568;2023-03-01T17:16:54;6.63;49.97
40059;SHT31;25763;49.972;8.568;2023-03-01T17:19:19;6.63;50.04
40059;SHT31;25763;49.972;8.568;2023-03-01T17:21:45;6.57;50.24
40059;SHT31;25763;49.972;8.568;2023-03-01T17:24:11;6.54;50.19
40059;SHT31;25763;49.972;8.568;2023-03-01T17:26:37;6.48;50.19
40059;SHT31;25763;49.972;8.568;2023-03-01T17:29:03;6.42;50.46
40059;SHT31;25763;49.972;8.568;2023-03-01T17:31:30;6.34;50.99
40059;SHT31;25763;49.972;8.568;2023-03-01T17:33:56;6.29;50.76